Spottwood, South Dakota
Current Conditions -  °F | °C
As of 12:55 PM on Tuesday 27 Jan 2015 (Local Time) from KHON Reporting Station
Clear Clear  
Wind Chill: 37°   Ceiling: Unl
Heat Index: 44°   Visibility: 10mi
Dew Point: 35°   Wind: 15mph
Humidity: 71%   Direction: 150°SSE
Pressure: 29.97"   Gusts: 23mph
Location:  44.7205°N, 98.5844°W
Report Text: KHON 271855Z AUTO 15013G20KT 10SM CLR 07/02 A2997 RMK AO2 SLP160 T00670017
Loading
Personal Weather Stations






























Interactive Weather Map New forecast layout! Learn more

10-Day Weather Forecast

Advertisements
Track Severe Weather on mobile